Time,TemperatureF,DewpointF,PressureIn,WindDirection,WindDirectionDegrees,WindSpeedMPH,WindSpeedGustMPH,Humidity,HourlyPrecipIn,Conditions,Clouds,dailyrainin,SoftwareType,DateUTC
2013-03-07 00:14:00,33.8,33.0,30.04,SW,215,0.0,-999.0,95,-99.99,,,0.00,weatherlink.com 1.10,2013-03-07 05:14:00,
2013-03-07 00:29:00,33.8,33.0,30.03,SW,215,0.0,-999.0,95,-99.99,,,0.00,weatherlink.com 1.10,2013-03-07 05:29:00,
2013-03-07 00:44:00,33.7,33.0,30.04,SSW,200,0.0,-999.0,95,-99.99,,,0.00,weatherlink.com 1.10,2013-03-07 05:44:00,
2013-03-07 00:59:00,33.7,33.0,30.04,SSW,200,0.0,-999.0,95,-99.99,,,0.00,weatherlink.com 1.10,2013-03-07 05:59:00,
2013-03-07 01:14:00,33.7,33.0,30.04,SSW,200,0.0,-999.0,95,-99.99,,,0.00,weatherlink.com 1.10,2013-03-07 06:14:00,
2013-03-07 01:29:00,33.7,33.0,30.04,SSW,200,0.0,-999.0,95,-99.99,,,0.00,weatherlink.com 1.10,2013-03-07 06:29:00,
2013-03-07 01:44:00,33.7,33.0,30.05,SSW,200,0.0,-999.0,95,-99.99,,,0.00,weatherlink.com 1.10,2013-03-07 06:44:00,
2013-03-07 01:59:00,33.7,33.0,30.05,SSW,200,0.0,-999.0,95,-99.99,,,0.00,weatherlink.com 1.10,2013-03-07 06:59:00,
2013-03-07 02:14:00,33.7,32.0,30.05,SSW,200,0.0,-999.0,94,-99.99,,,0.00,weatherlink.com 1.10,2013-03-07 07:14:00,
2013-03-07 02:29:00,33.5,32.0,30.05,SSW,200,0.0,-999.0,93,-99.99,,,0.00,weatherlink.com 1.10,2013-03-07 07:29:00,
2013-03-07 02:44:00,33.5,32.0,30.05,SSW,200,0.0,-999.0,92,-99.99,,,0.00,weatherlink.com 1.10,2013-03-07 07:44:00,
2013-03-07 02:59:00,33.5,32.0,30.04,SSW,202,0.0,-999.0,92,-99.99,,,0.00,weatherlink.com 1.10,2013-03-07 07:59:00,
2013-03-07 03:14:00,33.5,31.0,30.04,SSW,202,0.0,-999.0,91,-99.99,,,0.00,weatherlink.com 1.10,2013-03-07 08:14:00,
2013-03-07 03:29:00,33.4,31.0,30.04,SSW,202,0.0,-999.0,90,-99.99,,,0.00,weatherlink.com 1.10,2013-03-07 08:29:00,
2013-03-07 03:44:00,33.4,31.0,30.05,SSW,202,0.0,-999.0,90,-99.99,,,0.00,weatherlink.com 1.10,2013-03-07 08:44:00,
2013-03-07 03:59:00,33.4,31.0,30.05,SSW,202,0.0,-999.0,89,-99.99,,,0.00,weatherlink.com 1.10,2013-03-07 08:59:00,
2013-03-07 04:14:00,33.2,30.0,30.06,SSW,202,0.0,-999.0,89,-99.99,,,0.00,weatherlink.com 1.10,2013-03-07 09:14:00,
2013-03-07 04:29:00,33.2,30.0,30.07,SSW,202,0.0,-999.0,88,-99.99,,,0.00,weatherlink.com 1.10,2013-03-07 09:29:00,
2013-03-07 04:44:00,33.1,30.0,30.06,SSW,202,0.0,-999.0,88,-99.99,,,0.00,weatherlink.com 1.10,2013-03-07 09:44:00,
2013-03-07 04:59:00,33.1,30.0,30.06,SSW,202,0.0,-999.0,88,-99.99,,,0.00,weatherlink.com 1.10,2013-03-07 09:59:00,
2013-03-07 05:14:00,33.1,30.0,30.06,SSW,202,0.0,-999.0,87,-99.99,,,0.00,weatherlink.com 1.10,2013-03-07 10:14:00,
2013-03-07 05:29:00,33.1,30.0,30.06,SSW,202,0.0,-999.0,87,-99.99,,,0.00,weatherlink.com 1.10,2013-03-07 10:29:00,
2013-03-07 05:44:00,32.9,29.0,30.07,SSW,202,0.0,-999.0,86,-99.99,,,0.00,weatherlink.com 1.10,2013-03-07 10:44:00,
2013-03-07 05:59:00,32.9,29.0,30.07,SSW,202,0.0,-999.0,86,-99.99,,,0.00,weatherlink.com 1.10,2013-03-07 10:59:00,
2013-03-07 06:14:00,32.8,29.0,30.08,WNW,294,0.0,-999.0,85,-99.99,,,0.00,weatherlink.com 1.10,2013-03-07 11:14:00,
2013-03-07 06:29:00,32.7,28.0,30.09,NW,318,0.0,-999.0,83,-99.99,,,0.00,weatherlink.com 1.10,2013-03-07 11:29:00,
2013-03-07 06:44:00,32.4,28.0,30.09,NW,315,0.0,-999.0,84,-99.99,,,0.00,weatherlink.com 1.10,2013-03-07 11:44:00,
2013-03-07 06:59:00,32.1,28.0,30.09,NW,318,6.0,-999.0,84,-99.99,,,0.00,weatherlink.com 1.10,2013-03-07 11:59:00,
2013-03-07 07:14:00,31.9,28.0,30.11,NW,316,0.0,-999.0,84,-99.99,,,0.00,weatherlink.com 1.10,2013-03-07 12:14:00,
2013-03-07 07:44:00,31.8,28.0,30.13,NW,305,0.0,-999.0,84,-99.99,,,0.00,weatherlink.com 1.10,2013-03-07 12:44:00,
2013-03-07 07:59:00,31.8,28.0,30.13,NW,305,0.0,-999.0,84,-99.99,,,0.00,weatherlink.com 1.10,2013-03-07 12:59:00,
2013-03-07 08:14:00,31.8,28.0,30.14,NW,306,0.0,-999.0,84,-99.99,,,0.00,weatherlink.com 1.10,2013-03-07 13:14:00,
2013-03-07 08:29:00,31.9,28.0,30.15,NW,306,0.0,-999.0,84,-99.99,,,0.00,weatherlink.com 1.10,2013-03-07 13:29:00,
2013-03-07 08:44:00,32.1,28.0,30.16,NW,306,0.0,-999.0,84,-99.99,,,0.00,weatherlink.com 1.10,2013-03-07 13:44:00,
2013-03-07 08:59:00,32.1,28.0,30.16,NW,308,2.0,-999.0,84,-99.99,,,0.00,weatherlink.com 1.10,2013-03-07 13:59:00,
2013-03-07 09:14:00,32.4,28.0,30.16,NW,308,6.0,-999.0,84,-99.99,,,0.00,weatherlink.com 1.10,2013-03-07 14:14:00,
2013-03-07 09:29:00,32.5,28.0,30.16,NW,309,1.0,-999.0,83,-99.99,,,0.00,weatherlink.com 1.10,2013-03-07 14:29:00,
2013-03-07 09:44:00,32.5,28.0,30.16,NW,318,2.0,-999.0,82,-99.99,,,0.00,weatherlink.com 1.10,2013-03-07 14:44:00,
2013-03-07 09:59:00,32.8,28.0,30.16,NW,318,1.0,-999.0,81,-99.99,,,0.00,weatherlink.com 1.10,2013-03-07 14:59:00,
2013-03-07 10:14:00,32.9,27.0,30.16,NW,304,2.0,-999.0,80,-99.99,,,0.00,weatherlink.com 1.10,2013-03-07 15:14:00,
2013-03-07 10:29:00,33.1,27.0,30.16,WNW,302,0.0,-999.0,79,-99.99,,,0.00,weatherlink.com 1.10,2013-03-07 15:29:00,
2013-03-07 10:44:00,33.1,27.0,30.16,WNW,292,0.0,-999.0,79,-99.99,,,0.00,weatherlink.com 1.10,2013-03-07 15:44:00,
2013-03-07 10:59:00,33.4,27.0,30.16,WNW,301,1.0,-999.0,76,-99.99,,,0.00,weatherlink.com 1.10,2013-03-07 15:59:00,
2013-03-07 11:14:00,33.8,27.0,30.17,NW,308,0.0,-999.0,76,-99.99,,,0.00,weatherlink.com 1.10,2013-03-07 16:14:00,
2013-03-07 11:29:00,35.0,28.0,30.17,NW,311,3.0,-999.0,74,-99.99,,,0.00,weatherlink.com 1.10,2013-03-07 16:29:00,
2013-03-07 11:45:00,35.2,27.0,30.16,NNW,328,0.0,-999.0,72,-99.99,,,0.00,weatherlink.com 1.10,2013-03-07 16:45:00,
2013-03-07 12:00:00,34.9,27.0,30.16,NNW,346,4.0,-999.0,72,-99.99,,,0.00,weatherlink.com 1.10,2013-03-07 17:00:00,
2013-03-07 12:15:00,36.6,26.0,30.16,NW,322,5.0,-999.0,66,-99.99,,,0.00,weatherlink.com 1.10,2013-03-07 17:15:00,
2013-03-07 12:30:00,37.0,26.0,30.15,NW,320,2.0,-999.0,65,-99.99,,,0.00,weatherlink.com 1.10,2013-03-07 17:30:00,
2013-03-07 12:45:00,36.5,25.0,30.15,NNW,347,9.0,-999.0,63,-99.99,,,0.00,weatherlink.com 1.10,2013-03-07 17:45:00,
2013-03-07 13:00:00,36.6,25.0,30.15,North,350,8.0,-999.0,63,-99.99,,,0.00,weatherlink.com 1.10,2013-03-07 18:00:00,
2013-03-07 13:15:00,37.0,26.0,30.15,NNW,329,10.0,-999.0,64,-99.99,,,0.00,weatherlink.com 1.10,2013-03-07 18:15:00,
2013-03-07 13:30:00,37.2,25.0,30.14,NW,311,9.0,-999.0,62,-99.99,,,0.00,weatherlink.com 1.10,2013-03-07 18:30:00,
2013-03-07 13:45:00,36.9,25.0,30.14,NW,313,7.0,-999.0,63,-99.99,,,0.00,weatherlink.com 1.10,2013-03-07 18:45:00,
2013-03-07 14:00:00,36.9,26.0,30.14,NNW,330,11.0,-999.0,66,-99.99,,,0.00,weatherlink.com 1.10,2013-03-07 19:00:00,
2013-03-07 14:15:00,36.3,26.0,30.14,NNW,335,12.0,-999.0,66,-99.99,,,0.00,weatherlink.com 1.10,2013-03-07 19:15:00,
2013-03-07 14:30:00,36.0,26.0,30.14,North,356,12.0,-999.0,68,-99.99,,,0.00,weatherlink.com 1.10,2013-03-07 19:30:00,
2013-03-07 14:45:00,36.0,27.0,30.14,NW,326,6.0,-999.0,70,-99.99,,,0.00,weatherlink.com 1.10,2013-03-07 19:45:00,
2013-03-07 15:00:00,36.5,26.0,30.14,NW,319,7.0,-999.0,67,-99.99,,,0.00,weatherlink.com 1.10,2013-03-07 20:00:00,
2013-03-07 15:15:00,36.3,26.0,30.14,North,349,3.0,-999.0,66,-99.99,,,0.00,weatherlink.com 1.10,2013-03-07 20:15:00,
2013-03-07 15:30:00,36.0,26.0,30.15,North,0,9.0,-999.0,68,-99.99,,,0.00,weatherlink.com 1.10,2013-03-07 20:30:00,
2013-03-07 15:45:00,36.0,27.0,30.15,North,349,8.0,-999.0,71,-99.99,,,0.00,weatherlink.com 1.10,2013-03-07 20:45:00,
2013-03-07 16:00:00,35.8,28.0,30.15,North,357,10.0,-999.0,72,-99.99,,,0.00,weatherlink.com 1.10,2013-03-07 21:00:00,
2013-03-07 16:15:00,35.6,28.0,30.15,NNW,339,5.0,-999.0,73,-99.99,,,0.00,weatherlink.com 1.10,2013-03-07 21:15:00,
2013-03-07 16:30:00,35.2,28.0,30.15,North,354,6.0,-999.0,76,-99.99,,,0.00,weatherlink.com 1.10,2013-03-07 21:30:00,
2013-03-07 16:45:00,34.6,29.0,30.15,North,352,7.0,-999.0,79,-99.99,,,0.00,weatherlink.com 1.10,2013-03-07 21:45:00,
2013-03-07 17:00:00,34.0,29.0,30.15,North,359,6.0,-999.0,82,-99.99,,,0.00,weatherlink.com 1.10,2013-03-07 22:00:00,
2013-03-07 17:15:00,34.0,29.0,30.17,North,349,1.0,-999.0,83,-99.99,,,0.00,weatherlink.com 1.10,2013-03-07 22:15:00,
2013-03-07 17:30:00,34.1,29.0,30.17,NW,323,0.0,-999.0,82,-99.99,,,0.00,weatherlink.com 1.10,2013-03-07 22:30:00,
2013-03-07 17:45:00,34.1,29.0,30.17,NW,309,4.0,-999.0,81,-99.99,,,0.00,weatherlink.com 1.10,2013-03-07 22:45:00,
2013-03-07 18:00:00,34.0,28.0,30.18,NW,306,2.0,-999.0,80,-99.99,,,0.00,weatherlink.com 1.10,2013-03-07 23:00:00,
2013-03-07 18:15:00,34.0,28.0,30.18,NW,308,2.0,-999.0,80,-99.99,,,0.00,weatherlink.com 1.10,2013-03-07 23:15:00,
2013-03-07 18:30:00,33.8,29.0,30.18,NW,309,0.0,-999.0,81,-99.99,,,0.00,weatherlink.com 1.10,2013-03-07 23:30:00,
2013-03-07 18:45:00,33.7,29.0,30.19,NW,320,0.0,-999.0,82,-99.99,,,0.00,weatherlink.com 1.10,2013-03-07 23:45:00,
2013-03-07 19:00:00,33.5,29.0,30.19,NW,320,0.0,-999.0,83,-99.99,,,0.00,weatherlink.com 1.10,2013-03-08 00:00:00,
2013-03-07 19:15:00,33.4,29.0,30.20,NW,320,1.0,-999.0,84,-99.99,,,0.00,weatherlink.com 1.10,2013-03-08 00:15:00,
2013-03-07 19:30:00,33.2,29.0,30.20,NW,320,0.0,-999.0,85,-99.99,,,0.00,weatherlink.com 1.10,2013-03-08 00:30:00,
2013-03-07 19:45:00,33.2,29.0,30.19,NW,320,0.0,-999.0,85,-99.99,,,0.00,weatherlink.com 1.10,2013-03-08 00:45:00,
2013-03-07 20:00:00,33.1,29.0,30.19,NW,320,0.0,-999.0,85,-99.99,,,0.00,weatherlink.com 1.10,2013-03-08 01:00:00,
2013-03-07 20:15:00,32.9,29.0,30.20,NW,320,0.0,-999.0,86,-99.99,,,0.00,weatherlink.com 1.10,2013-03-08 01:15:00,
2013-03-07 20:30:00,33.1,29.0,30.20,NW,322,2.0,-999.0,86,-99.99,,,0.00,weatherlink.com 1.10,2013-03-08 01:30:00,
2013-03-07 20:45:00,32.7,29.0,30.21,North,359,11.0,-999.0,87,-99.99,,,0.00,weatherlink.com 1.10,2013-03-08 01:45:00,
2013-03-07 21:00:00,32.4,29.0,30.21,North,356,6.0,-999.0,88,-99.99,,,0.00,weatherlink.com 1.10,2013-03-08 02:00:00,
2013-03-07 21:15:00,31.8,29.0,30.20,North,0,3.0,-999.0,89,-99.99,,,0.00,weatherlink.com 1.10,2013-03-08 02:15:00,
2013-03-07 21:30:00,31.8,29.0,30.21,North,350,4.0,-999.0,90,-99.99,,,0.00,weatherlink.com 1.10,2013-03-08 02:30:00,
2013-03-07 21:45:00,31.6,29.0,30.21,North,357,4.0,-999.0,91,-99.99,,,0.00,weatherlink.com 1.10,2013-03-08 02:45:00,
2013-03-07 22:00:00,31.6,29.0,30.21,North,0,5.0,-999.0,91,-99.99,,,0.00,weatherlink.com 1.10,2013-03-08 03:00:00,
2013-03-07 22:15:00,31.5,30.0,30.21,North,0,2.0,-999.0,92,-99.99,,,0.00,weatherlink.com 1.10,2013-03-08 03:15:00,
2013-03-07 22:30:00,31.3,29.0,30.21,North,359,0.0,-999.0,92,-99.99,,,0.00,weatherlink.com 1.10,2013-03-08 03:30:00,
2013-03-07 22:45:00,31.3,29.0,30.21,North,359,0.0,-999.0,92,-99.99,,,0.00,weatherlink.com 1.10,2013-03-08 03:45:00,
2013-03-07 23:00:00,31.3,29.0,30.21,North,353,0.0,-999.0,92,-99.99,,,0.00,weatherlink.com 1.10,2013-03-08 04:00:00,
2013-03-07 23:15:00,31.0,29.0,30.20,North,0,6.0,-999.0,92,-99.99,,,0.00,weatherlink.com 1.10,2013-03-08 04:15:00,
2013-03-07 23:30:00,31.0,29.0,30.21,North,353,3.0,-999.0,91,-99.99,,,0.00,weatherlink.com 1.10,2013-03-08 04:30:00,
2013-03-07 23:45:00,31.0,29.0,30.21,North,359,5.0,-999.0,90,-99.99,,,0.00,weatherlink.com 1.10,2013-03-08 04:45:00,